Aeroporto :
LOGIN :

Iscrizione | Disclaimer

   EN    FR    IT 

 










Sommario :    VFR   VFR Marginale   IFR   IFR Intensivo   IFR Molto Intensivo
Visibilità : 
Base nubi : 
>= 8 km
>= 3000ft
5 / 8 km
1000 / 3000 ft
1500m / 5 km
500 / 1000 ft
800 / 1500m
200 / 500 ft
< 800m
< 200 ft
Simboli :   Temporali  Nebbia  Neve Forte  Precipitazioni Forti  Vento > 20 kt
SIGMETs :   Varie  Temporali  Ghiacco  Turbolenza  Onda orograficha  Ceneri Vulcaniche







- Altitudine del aeroporto : 776 ft
- Codice IATA : RMS


ETAR - Ramstein Air Base

ULTIMO METAR :
  • 210356Z AUTO 00000KT 9999 CLR 16/16 A3008 RMK AO2 SLP179 T01570157 $

METARs OBSOLETI :
  • 210256Z 00000KT 9999 CLR 15/15 A3006 RMK AO2A SLP172 T01450145 52008 $
  • 210156Z AUTO 00000KT 9999 FEW100 17/17 A3005 RMK AO2 SLP168 T01710169 $

TAF TAF ETAR
Valido dal 21 a 02 ore il 22 a 08 ore UTC


210203Z 2102/2208 VRB06KT 9999 BKN040 QNH3002INS
BECMG 2107/2108 27009KT 8000 -SHRA SCT025 BKN040 QNH3007INS
BECMG 2111/2112 28009KT 9999 NSW FEW060 QNH3017INS
BECMG 2118/2119 VRB06KT 9999 FEW080 QNH3019INS TX29/2115Z TN13/2202Z
Nessun NOTAM noto per questo aeroporto.
1 SIGMET conosciuto per la FIR Langen (EDGG) :
 
Temporali affogati
EDGG SIGMET T02 VALID 210300/210500 EDZF
EDGG LANGEN FIR EMBD TS OBS WI N4947 E01054 - N4924 E01059 - N4838 E00939 - N4748 E00933 - N4747 E00853 - N4756 E00853 - N4740 E00759 - N4837 E00820 - N4947 E01054 TOP FL380 NC FCST AT 0500Z WI N4952 E01211 - N4847 E01333 - N4731 E01020 - N4747 E00913 - N4952 E01211=



MetMap, La meteo Aeronautica in un colpo d'occhio ! - Copyright ORBIFLY Dicembre 2007 - Disclaimer

ORBIFLY MET'MAP TEAM :

Programmazione e sviluppo : Alexandra Zaïnal
Concezione e sviluppo : Baudouin d'Aumeries
Co-Programmazione e sviluppo : Marc-Olivier Méhu
Supporto tecnico e logistico : Manuel Goepfert
Aiuto per la traduzione : Arnaldo La Scala

Contatto : metmap@orbifly.com




FONTI E CREDITI :

   NOAA